createdAt,value
2017-10-31T12:27:54.757Z,1014.76
2017-10-31T12:28:57.307Z,1014.79
2017-10-31T12:30:00.057Z,1014.70
2017-10-31T12:31:01.640Z,1014.63
2017-10-31T12:32:04.379Z,1014.62
2017-10-31T12:33:07.345Z,1014.62
2017-10-31T12:34:09.731Z,1014.64
2017-10-31T12:35:12.928Z,1014.62
2017-10-31T12:36:15.759Z,1014.57
2017-10-31T12:37:18.577Z,1014.66
2017-10-31T12:38:21.589Z,1014.55
2017-10-31T12:39:24.610Z,1014.65
2017-10-31T12:40:27.497Z,1014.61
2017-10-31T12:41:30.284Z,1014.63
2017-10-31T12:42:33.109Z,1014.61
2017-10-31T12:43:36.979Z,1014.63
2017-10-31T12:44:39.846Z,1014.63
2017-10-31T12:45:42.727Z,1014.58
2017-10-31T12:46:45.501Z,1014.59
2017-10-31T12:47:47.874Z,1014.42
2017-10-31T12:48:51.189Z,1014.52
2017-10-31T12:49:54.204Z,1014.49
2017-10-31T12:50:57.006Z,1014.48
2017-10-31T12:52:00.046Z,1014.55
2017-10-31T12:53:02.831Z,1014.56
2017-10-31T12:54:05.710Z,1014.63
2017-10-31T12:55:08.482Z,1014.57
2017-10-31T12:56:11.373Z,1014.57
2017-10-31T12:57:14.568Z,1014.54
2017-10-31T12:58:17.369Z,1014.60
2017-10-31T12:59:20.213Z,1014.57
2017-10-31T13:00:23.062Z,1014.51
2017-10-31T13:01:25.149Z,1014.54
2017-10-31T13:02:28.040Z,1014.56
2017-10-31T13:03:30.847Z,1014.45
2017-10-31T13:04:33.594Z,1014.47
2017-10-31T13:05:36.381Z,1014.54
2017-10-31T13:06:39.331Z,1014.52
2017-10-31T13:07:42.147Z,1014.54
2017-10-31T13:08:45.009Z,1014.46
2017-10-31T13:09:47.739Z,1014.42
2017-10-31T13:10:50.528Z,1014.39
2017-10-31T13:11:53.269Z,1014.33
2017-10-31T13:12:56.376Z,1014.33
2017-10-31T13:13:58.924Z,1014.27
2017-10-31T13:15:02.061Z,1014.31
2017-10-31T13:16:04.977Z,1014.27
2017-10-31T13:17:07.773Z,1014.22
2017-10-31T13:18:09.769Z,1014.25
2017-10-31T13:19:12.593Z,1014.30
2017-10-31T13:20:15.383Z,1014.27
2017-10-31T13:21:18.837Z,1014.31
2017-10-31T13:22:21.601Z,1014.37
2017-10-31T13:23:25.891Z,1014.39
2017-10-31T13:24:30.110Z,1014.38
2017-10-31T13:25:33.067Z,1014.38
2017-10-31T13:26:36.034Z,1014.30
2017-10-31T13:27:39.461Z,1014.32
2017-10-31T13:28:42.305Z,1014.36
2017-10-31T13:29:45.043Z,1014.32
2017-10-31T13:30:47.681Z,1014.30
2017-10-31T13:31:50.336Z,1014.30
2017-10-31T13:32:53.153Z,1014.22
2017-10-31T13:33:56.197Z,1014.23
2017-10-31T13:34:58.873Z,1014.25
2017-10-31T13:36:00.461Z,1014.27
2017-10-31T13:37:03.319Z,1014.27
2017-10-31T13:38:06.194Z,1014.29
2017-10-31T13:39:09.732Z,1014.30
2017-10-31T13:40:12.556Z,1014.36
2017-10-31T13:41:15.336Z,1014.34
2017-10-31T13:42:18.105Z,1014.30
2017-10-31T13:43:20.881Z,1014.31
2017-10-31T13:44:23.694Z,1014.36
2017-10-31T13:45:26.502Z,1014.34
2017-10-31T13:46:29.651Z,1014.31
2017-10-31T13:47:32.393Z,1014.29
2017-10-31T13:48:35.199Z,1014.29
2017-10-31T13:49:38.647Z,1014.30
2017-10-31T13:50:41.817Z,1014.32
2017-10-31T13:51:45.042Z,1014.33
2017-10-31T13:52:47.314Z,1014.28
2017-10-31T13:53:50.462Z,1014.35
2017-10-31T13:54:53.446Z,1014.33
2017-10-31T13:55:56.342Z,1014.31
2017-10-31T13:56:59.130Z,1014.35
2017-10-31T13:58:01.953Z,1014.33
2017-10-31T13:59:04.871Z,1014.36
2017-10-31T14:00:08.737Z,1014.37
2017-10-31T14:01:11.323Z,1014.32
2017-10-31T14:02:14.189Z,1014.29
2017-10-31T14:03:17.047Z,1014.27
2017-10-31T14:04:19.972Z,1014.32
2017-10-31T14:05:22.704Z,1014.30
2017-10-31T14:06:25.810Z,1014.24
2017-10-31T14:07:28.580Z,1014.28
2017-10-31T14:08:31.652Z,1014.25
2017-10-31T14:09:34.505Z,1014.24
2017-10-31T14:10:37.280Z,1014.25
2017-10-31T14:11:40.396Z,1014.27
2017-10-31T14:12:43.442Z,1014.24
2017-10-31T14:13:47.502Z,1014.25
2017-10-31T14:14:49.656Z,1014.25
2017-10-31T14:15:52.404Z,1014.27
2017-10-31T14:16:55.540Z,1014.25
2017-10-31T14:17:58.372Z,1014.18
2017-10-31T14:19:01.125Z,1014.23
2017-10-31T14:20:04.317Z,1014.22
2017-10-31T14:21:07.212Z,1014.18
2017-10-31T14:22:09.977Z,1014.14
2017-10-31T14:23:12.742Z,1014.16
2017-10-31T14:24:15.541Z,1014.14
2017-10-31T14:25:18.349Z,1014.16
2017-10-31T14:26:21.282Z,1014.10
2017-10-31T14:27:24.144Z,1014.07
